Temperature Data - May 2008

                     Air Temperature Pool Temperature  
Date Low High Low High Comments
5/1/08 41.0 64.4 63.9 64.2 Solar Blanket only
5/2/08 48.0 86.7 66.3 67.5 Solar Blanket only
5/3/08 59.2 84.2 67.3 71.2 Started solar heating - 10:00 AM - 5:00 PM - full sun
5/4/08 57.2 70.3 69.6 75.0 Solar heating - 9:30-4:00 full, cool breeze all day
5/5/08 44.8 76.6 72.0 76.8 Sunny 9:30-4:00, very dry, solar blanket
5/6/08 44.6 80.6 74.1 77.9 Sunny 9:30-4:00, very dry , solar blanket
5/7/08 44.8 80.8 75.4 80.6 Sunny, breezy 9:30-4:00, very dry , solar blanket
5/8/08 61.7 70.9 78.6 77.9 Rainy and cool (removed solar blanket for good)
5/9/08 54.5 62.6 74.8 77.2 Cold rainy.1/2" of rain (high was at 5:00 am)
5/10/08 52.2 63.3 71.1 72.8 Intermittent sun and breezy
5/11/08 45.5 52.5 62.0 62.0 RAIN!, 6-9 inches of rain! pumped 8-9 inches of water out of pool
5/12/08 39.9 43.3 62.0 62.0 Cloudy, with rain
5/13/08 46.4 71.4 62.0 64.1 Sunny.  Pump was not turned on until 3:30 PM and ran until 6:30
5/14/08 47.3 73.2 63.7 65.7 Mostly cloudy - turned off pump at 2:00
5/15/08 57.2 76.3 65.7 66.7 Cloudy, rain pump turned off
5/16/08 59.9 61.0 66.6 66.8 Cloudy, rain - pump turned off
5/17-20/08 - - - - Cold and rainy - No Data collected, system turned off.
5/21/08 45.0 68.0 62.1 66.4 Partly cloudy
5/22/08 42.4 66.2 63.5 68.4 Partly cloudy and cool breezes 20-30 MPH
5/23/08 49.3 71.1 64.9 70.1 Sunny all day
5/24/08 50.2 72.3 67.9 73.6 Sunny, few high clouds
5/25/08 49.5 80.1 69.8 76.1 Sunny, warm
5/26/08 54.7 89 72.1 78.6 Sunny, warm and breezy.
5/27/08 67.8 80.4 76.3 76.5 Cloudy, rain - did not run system
5/28/08 56.3 71.6 74.5 76.2 Did no run filter today.
5/29/08 43.7 82.4 72.0 77.8 Sunny
5/30/08 57.0 87 74.1 80.1 Sunny
5/31/08 69.8 76.5 77.2 77.4 Cloudy with thunderstorms

              Temperature Data - June 2008    

  Air Temperature Pool Temperature  
Date Low High Low High Comments
6/1/08 66.9 83.8 75.4 78.9 Mostly sunny, two storms
6/2/08 56.1 80.6 75.0 81.0 Sunny and clear
6/3/08 57.0 86.7 76.5 80.4 Partly cloudy, thunderstorms in afternoon.
6/4/08 66.4 82.9 77.5 76.2 Cloudy, thunderstorms all day - system off
6/5/08 67.1 91.0 76.0 83.3 Sunny and hot
6/6/08 67.3 81.0 80.8 83.7 Cloudy until 2:00, humid
6/7/08 73.2 95.0 81.9 88.7 Hot, humid, Reached goal of 84 degrees by noon and decided to try pool @ 88.
6/8/08 72.0 93.0 84.3 90.1 Today's heat provided by Mother Nature.
6/9/08 71.0 94.0 86.7 90.0 Hot, humid - scorcher of a day, code red air (running panels after dark for cooling)
6/10/08 70 99 84.5 90.0 Hazy, Hot, Humid
6/11/08 66 86 84.3 88.1 Hot but air is drier
6/12/08 64 92 83.7 87.3 Hot but air is drier- about .50" water loss to evaporation
6/13/08 66 92 84.3 86.5 Sunny hot, humid
6/14/08 69.1 90.1 84.3 87.8 Sunny, hot - afternoon thunderstorm dropped .75" rain
6/15/08 66 83 83.7 85.2 Sunny, Hot, dry - Perfect Father's Day
6/16/08 61 85 82.1 85.1 Sunny, hot
6/17/08 60 74 81.5 85.2 Sunny hot
6/18/08 56 79 77.1 82.7 Partly cloudy
6/19/08 55 76 77.0 82.5 Partly cloudy
   
Stopped Data Collection

Questions? mailto:solar@bakerlabs.com